sensor_id;sensor_type;location;lat;lon;timestamp;P1;P2;P0
73749;PMS7003;62058;48.406;-4.514;2022-10-04T00:01:28;0.00;0.00;0.00
73749;PMS7003;62058;48.406;-4.514;2022-10-04T00:04:04;1.75;0.00;0.00
73749;PMS7003;62058;48.406;-4.514;2022-10-04T00:06:35;0.50;0.00;0.00
73749;PMS7003;62058;48.406;-4.514;2022-10-04T00:09:13;0.00;0.00;0.00
73749;PMS7003;62058;48.406;-4.514;2022-10-04T00:11:43;0.00;0.00;0.00
73749;PMS7003;62058;48.406;-4.514;2022-10-04T00:17:09;0.00;0.00;0.00
73749;PMS7003;62058;48.406;-4.514;2022-10-04T00:19:44;0.00;0.00;0.00
73749;PMS7003;62058;48.406;-4.514;2022-10-04T00:22:12;0.75;0.00;0.00
73749;PMS7003;62058;48.406;-4.514;2022-10-04T00:25:00;0.00;0.00;0.00
73749;PMS7003;62058;48.406;-4.514;2022-10-04T00:27:34;0.00;0.00;0.00
73749;PMS7003;62058;48.406;-4.514;2022-10-04T00:43:14;0.00;0.00;0.00
73749;PMS7003;62058;48.406;-4.514;2022-10-04T00:45:45;0.00;0.00;0.00
73749;PMS7003;62058;48.406;-4.514;2022-10-04T00:54:00;0.75;0.00;0.00
73749;PMS7003;62058;48.406;-4.514;2022-10-04T01:01:48;0.25;0.00;0.00
73749;PMS7003;62058;48.406;-4.514;2022-10-04T01:05:01;0.00;0.00;0.00
73749;PMS7003;62058;48.406;-4.514;2022-10-04T01:07:10;0.00;0.00;0.00
73749;PMS7003;62058;48.406;-4.514;2022-10-04T01:09:44;0.00;0.00;0.00
73749;PMS7003;62058;48.406;-4.514;2022-10-04T01:12:20;0.00;0.00;0.00
73749;PMS7003;62058;48.406;-4.514;2022-10-04T01:15:17;0.00;0.00;0.00
73749;PMS7003;62058;48.406;-4.514;2022-10-04T01:23:15;1.50;0.00;0.00
73749;PMS7003;62058;48.406;-4.514;2022-10-04T01:25:56;0.00;0.00;0.00
73749;PMS7003;62058;48.406;-4.514;2022-10-04T01:28:21;1.00;0.00;0.00
73749;PMS7003;62058;48.406;-4.514;2022-10-04T01:30:47;0.75;0.00;0.00
73749;PMS7003;62058;48.406;-4.514;2022-10-04T01:33:13;0.00;0.00;0.00
73749;PMS7003;62058;48.406;-4.514;2022-10-04T01:35:38;1.50;0.00;0.00
73749;PMS7003;62058;48.406;-4.514;2022-10-04T01:38:04;0.00;0.00;0.00
73749;PMS7003;62058;48.406;-4.514;2022-10-04T01:40:35;0.00;0.00;0.00
73749;PMS7003;62058;48.406;-4.514;2022-10-04T01:43:10;0.00;0.00;0.00
73749;PMS7003;62058;48.406;-4.514;2022-10-04T01:45:46;0.00;0.00;0.00
73749;PMS7003;62058;48.406;-4.514;2022-10-04T01:48:15;0.50;0.00;0.00
73749;PMS7003;62058;48.406;-4.514;2022-10-04T01:50:46;1.00;0.00;0.00
73749;PMS7003;62058;48.406;-4.514;2022-10-04T01:55:51;0.00;0.00;0.00
73749;PMS7003;62058;48.406;-4.514;2022-10-04T01:58:38;0.00;0.00;0.00
73749;PMS7003;62058;48.406;-4.514;2022-10-04T02:01:24;0.00;0.00;0.00
73749;PMS7003;62058;48.406;-4.514;2022-10-04T02:04:01;0.00;0.00;0.00
73749;PMS7003;62058;48.406;-4.514;2022-10-04T02:06:38;0.00;0.00;0.00
73749;PMS7003;62058;48.406;-4.514;2022-10-04T02:09:07;0.00;0.00;0.00
73749;PMS7003;62058;48.406;-4.514;2022-10-04T02:11:37;0.00;0.00;0.00
73749;PMS7003;62058;48.406;-4.514;2022-10-04T02:14:06;0.00;0.00;0.00
73749;PMS7003;62058;48.406;-4.514;2022-10-04T02:16:39;0.00;0.00;0.00
73749;PMS7003;62058;48.406;-4.514;2022-10-04T02:19:08;0.50;0.00;0.00
73749;PMS7003;62058;48.406;-4.514;2022-10-04T02:21:35;0.00;0.00;0.00
73749;PMS7003;62058;48.406;-4.514;2022-10-04T02:24:01;0.75;0.00;0.00
73749;PMS7003;62058;48.406;-4.514;2022-10-04T02:26:29;0.00;0.00;0.00
73749;PMS7003;62058;48.406;-4.514;2022-10-04T02:28:54;0.00;0.00;0.00
73749;PMS7003;62058;48.406;-4.514;2022-10-04T02:31:20;0.00;0.00;0.00
73749;PMS7003;62058;48.406;-4.514;2022-10-04T02:34:06;0.00;0.00;0.00
73749;PMS7003;62058;48.406;-4.514;2022-10-04T02:36:31;0.00;0.00;0.00
73749;PMS7003;62058;48.406;-4.514;2022-10-04T02:39:03;0.00;0.00;0.00
73749;PMS7003;62058;48.406;-4.514;2022-10-04T02:41:47;0.00;0.00;0.00
73749;PMS7003;62058;48.406;-4.514;2022-10-04T02:44:34;1.75;1.00;1.00
73749;PMS7003;62058;48.406;-4.514;2022-10-04T02:55:27;0.00;0.00;0.00
73749;PMS7003;62058;48.406;-4.514;2022-10-04T02:57:54;0.00;0.00;0.00
73749;PMS7003;62058;48.406;-4.514;2022-10-04T03:00:29;0.00;0.00;0.00
73749;PMS7003;62058;48.406;-4.514;2022-10-04T03:03:15;0.00;0.00;0.00
73749;PMS7003;62058;48.406;-4.514;2022-10-04T03:08:18;0.50;0.50;0.50
73749;PMS7003;62058;48.406;-4.514;2022-10-04T03:10:44;0.50;0.50;0.50
73749;PMS7003;62058;48.406;-4.514;2022-10-04T03:13:11;1.00;0.00;0.00
73749;PMS7003;62058;48.406;-4.514;2022-10-04T03:15:38;0.50;0.00;0.00
73749;PMS7003;62058;48.406;-4.514;2022-10-04T03:18:04;0.00;0.00;0.00
73749;PMS7003;62058;48.406;-4.514;2022-10-04T03:20:30;0.25;0.25;0.25
73749;PMS7003;62058;48.406;-4.514;2022-10-04T03:22:59;1.00;1.00;1.00
73749;PMS7003;62058;48.406;-4.514;2022-10-04T03:25:37;1.00;1.00;1.00
73749;PMS7003;62058;48.406;-4.514;2022-10-04T03:28:09;1.00;0.50;0.00
73749;PMS7003;62058;48.406;-4.514;2022-10-04T03:30:35;0.00;0.00;0.00
73749;PMS7003;62058;48.406;-4.514;2022-10-04T03:33:01;0.75;0.75;0.00
73749;PMS7003;62058;48.406;-4.514;2022-10-04T03:35:28;0.00;0.00;0.00
73749;PMS7003;62058;48.406;-4.514;2022-10-04T03:37:57;0.00;0.00;0.00
73749;PMS7003;62058;48.406;-4.514;2022-10-04T03:40:27;0.00;0.00;0.00
73749;PMS7003;62058;48.406;-4.514;2022-10-04T03:42:55;0.50;0.00;0.00
73749;PMS7003;62058;48.406;-4.514;2022-10-04T03:45:23;0.00;0.00;0.00
73749;PMS7003;62058;48.406;-4.514;2022-10-04T03:47:52;0.75;0.75;0.75
73749;PMS7003;62058;48.406;-4.514;2022-10-04T03:50:21;0.75;0.75;0.00
73749;PMS7003;62058;48.406;-4.514;2022-10-04T03:52:54;2.00;1.00;0.25
73749;PMS7003;62058;48.406;-4.514;2022-10-04T03:55:33;2.00;0.00;0.00
73749;PMS7003;62058;48.406;-4.514;2022-10-04T03:58:02;1.25;0.00;0.00
73749;PMS7003;62058;48.406;-4.514;2022-10-04T04:00:30;2.00;0.00;0.00
73749;PMS7003;62058;48.406;-4.514;2022-10-04T04:02:58;0.00;0.00;0.00
73749;PMS7003;62058;48.406;-4.514;2022-10-04T04:05:28;0.00;0.00;0.00
73749;PMS7003;62058;48.406;-4.514;2022-10-04T04:10:28;0.00;0.00;0.00
73749;PMS7003;62058;48.406;-4.514;2022-10-04T04:15:30;0.00;0.00;0.00
73749;PMS7003;62058;48.406;-4.514;2022-10-04T04:17:59;1.50;0.25;0.25
73749;PMS7003;62058;48.406;-4.514;2022-10-04T04:20:31;0.00;0.00;0.00
73749;PMS7003;62058;48.406;-4.514;2022-10-04T04:23:42;0.50;0.00;0.00
73749;PMS7003;62058;48.406;-4.514;2022-10-04T04:25:54;1.00;0.00;0.00
73749;PMS7003;62058;48.406;-4.514;2022-10-04T04:29:07;0.00;0.00;0.00
73749;PMS7003;62058;48.406;-4.514;2022-10-04T04:31:19;0.00;0.00;0.00
73749;PMS7003;62058;48.406;-4.514;2022-10-04T04:33:58;0.00;0.00;0.00
73749;PMS7003;62058;48.406;-4.514;2022-10-04T04:36:29;0.00;0.00;0.00
73749;PMS7003;62058;48.406;-4.514;2022-10-04T04:39:06;0.75;0.00;0.00
73749;PMS7003;62058;48.406;-4.514;2022-10-04T04:42:02;0.00;0.00;0.00
73749;PMS7003;62058;48.406;-4.514;2022-10-04T04:44:29;0.00;0.00;0.00
73749;PMS7003;62058;48.406;-4.514;2022-10-04T04:46:56;1.00;1.00;1.00
73749;PMS7003;62058;48.406;-4.514;2022-10-04T04:49:24;0.00;0.00;0.00
73749;PMS7003;62058;48.406;-4.514;2022-10-04T04:51:53;1.00;0.00;0.00
73749;PMS7003;62058;48.406;-4.514;2022-10-04T04:54:22;1.00;0.00;0.00
73749;PMS7003;62058;48.406;-4.514;2022-10-04T04:56:51;0.75;0.00;0.00
73749;PMS7003;62058;48.406;-4.514;2022-10-04T04:59:19;0.00;0.00;0.00
73749;PMS7003;62058;48.406;-4.514;2022-10-04T05:01:48;2.25;1.00;1.00
73749;PMS7003;62058;48.406;-4.514;2022-10-04T05:04:23;0.00;0.00;0.00
73749;PMS7003;62058;48.406;-4.514;2022-10-04T05:07:03;1.25;0.75;0.75
73749;PMS7003;62058;48.406;-4.514;2022-10-04T05:09:39;2.50;1.00;0.50
73749;PMS7003;62058;48.406;-4.514;2022-10-04T05:14:46;0.00;0.00;0.00
73749;PMS7003;62058;48.406;-4.514;2022-10-04T05:17:23;0.25;0.25;0.25
73749;PMS7003;62058;48.406;-4.514;2022-10-04T05:19:51;2.00;0.25;0.00
73749;PMS7003;62058;48.406;-4.514;2022-10-04T05:22:21;1.25;1.00;1.00
73749;PMS7003;62058;48.406;-4.514;2022-10-04T05:24:52;0.00;0.00;0.00
73749;PMS7003;62058;48.406;-4.514;2022-10-04T05:27:38;0.25;0.00;0.00
73749;PMS7003;62058;48.406;-4.514;2022-10-04T05:35:26;0.75;0.75;0.50
73749;PMS7003;62058;48.406;-4.514;2022-10-04T05:40:44;3.00;1.00;1.00
73749;PMS7003;62058;48.406;-4.514;2022-10-04T05:48:41;2.00;2.00;1.25
73749;PMS7003;62058;48.406;-4.514;2022-10-04T05:51:19;2.50;2.50;2.50
73749;PMS7003;62058;48.406;-4.514;2022-10-04T05:53:47;1.00;1.00;1.00
73749;PMS7003;62058;48.406;-4.514;2022-10-04T06:10:39;2.00;2.00;1.25
73749;PMS7003;62058;48.406;-4.514;2022-10-04T06:24:28;2.00;2.00;1.75
73749;PMS7003;62058;48.406;-4.514;2022-10-04T06:29:52;1.00;0.75;0.00
73749;PMS7003;62058;48.406;-4.514;2022-10-04T06:35:27;1.75;1.00;0.50
73749;PMS7003;62058;48.406;-4.514;2022-10-04T06:38:23;1.00;1.00;1.00
73749;PMS7003;62058;48.406;-4.514;2022-10-04T06:50:03;0.50;0.50;0.25
73749;PMS7003;62058;48.406;-4.514;2022-10-04T07:00:57;2.00;1.00;1.00
73749;PMS7003;62058;48.406;-4.514;2022-10-04T07:03:51;0.50;0.00;0.00
73749;PMS7003;62058;48.406;-4.514;2022-10-04T07:06:33;0.25;0.25;0.00
73749;PMS7003;62058;48.406;-4.514;2022-10-04T07:09:03;0.00;0.00;0.00
73749;PMS7003;62058;48.406;-4.514;2022-10-04T07:11:35;0.75;0.75;0.25
73749;PMS7003;62058;48.406;-4.514;2022-10-04T07:17:11;1.00;1.00;0.75
73749;PMS7003;62058;48.406;-4.514;2022-10-04T07:19:44;2.00;0.00;0.00
73749;PMS7003;62058;48.406;-4.514;2022-10-04T07:22:21;0.00;0.00;0.00
73749;PMS7003;62058;48.406;-4.514;2022-10-04T07:27:33;0.00;0.00;0.00
73749;PMS7003;62058;48.406;-4.514;2022-10-04T07:30:00;4.25;2.00;1.00
73749;PMS7003;62058;48.406;-4.514;2022-10-04T07:32:36;3.75;2.00;1.50
73749;PMS7003;62058;48.406;-4.514;2022-10-04T07:37:35;2.00;1.25;0.75
73749;PMS7003;62058;48.406;-4.514;2022-10-04T07:40:30;2.00;0.00;0.00
73749;PMS7003;62058;48.406;-4.514;2022-10-04T07:43:02;3.50;1.00;1.00
73749;PMS7003;62058;48.406;-4.514;2022-10-04T07:45:38;0.75;0.75;0.75
73749;PMS7003;62058;48.406;-4.514;2022-10-04T07:50:34;0.00;0.00;0.00
73749;PMS7003;62058;48.406;-4.514;2022-10-04T07:53:56;0.00;0.00;0.00
73749;PMS7003;62058;48.406;-4.514;2022-10-04T07:56:39;0.00;0.00;0.00
73749;PMS7003;62058;48.406;-4.514;2022-10-04T08:19:19;0.00;0.00;0.00
73749;PMS7003;62058;48.406;-4.514;2022-10-04T08:21:51;0.00;0.00;0.00
73749;PMS7003;62058;48.406;-4.514;2022-10-04T08:24:31;0.00;0.00;0.00
73749;PMS7003;62058;48.406;-4.514;2022-10-04T08:35:33;1.50;0.00;0.00
73749;PMS7003;62058;48.406;-4.514;2022-10-04T08:38:11;0.00;0.00;0.00
73749;PMS7003;62058;48.406;-4.514;2022-10-04T09:09:18;0.00;0.00;0.00
73749;PMS7003;62058;48.406;-4.514;2022-10-04T09:12:27;0.00;0.00;0.00
73749;PMS7003;62058;48.406;-4.514;2022-10-04T09:15:16;0.00;0.00;0.00
73749;PMS7003;62058;48.406;-4.514;2022-10-04T09:20:58;0.00;0.00;0.00
73749;PMS7003;62058;48.406;-4.514;2022-10-04T09:34:16;0.00;0.00;0.00
73749;PMS7003;62058;48.406;-4.514;2022-10-04T10:01:17;1.00;0.00;0.00
73749;PMS7003;62058;48.406;-4.514;2022-10-04T10:06:54;0.00;0.00;0.00
73749;PMS7003;62058;48.406;-4.514;2022-10-04T10:12:40;0.00;0.00;0.00
73749;PMS7003;62058;48.406;-4.514;2022-10-04T10:15:54;0.00;0.00;0.00
73749;PMS7003;62058;48.406;-4.514;2022-10-04T10:27:14;0.00;0.00;0.00
73749;PMS7003;62058;48.406;-4.514;2022-10-04T10:35:40;0.00;0.00;0.00
73749;PMS7003;62058;48.406;-4.514;2022-10-04T10:44:16;0.00;0.00;0.00
73749;PMS7003;62058;48.406;-4.514;2022-10-04T11:04:23;0.00;0.00;0.00
73749;PMS7003;62058;48.406;-4.514;2022-10-04T11:10:39;0.00;0.00;0.00
73749;PMS7003;62058;48.406;-4.514;2022-10-04T11:18:36;0.00;0.00;0.00
73749;PMS7003;62058;48.406;-4.514;2022-10-04T11:24:11;0.00;0.00;0.00
73749;PMS7003;62058;48.406;-4.514;2022-10-04T11:27:00;0.00;0.00;0.00
73749;PMS7003;62058;48.406;-4.514;2022-10-04T11:38:12;0.00;0.00;0.00
73749;PMS7003;62058;48.406;-4.514;2022-10-04T11:40:29;0.00;0.00;0.00
73749;PMS7003;62058;48.406;-4.514;2022-10-04T12:02:32;0.00;0.00;0.00
73749;PMS7003;62058;48.406;-4.514;2022-10-04T12:18:47;0.00;0.00;0.00
73749;PMS7003;62058;48.406;-4.514;2022-10-04T12:32:39;0.00;0.00;0.00
73749;PMS7003;62058;48.406;-4.514;2022-10-04T12:41:10;0.00;0.00;0.00
73749;PMS7003;62058;48.406;-4.514;2022-10-04T12:46:55;0.00;0.00;0.00
73749;PMS7003;62058;48.406;-4.514;2022-10-04T12:52:37;0.00;0.00;0.00
73749;PMS7003;62058;48.406;-4.514;2022-10-04T12:58:24;0.00;0.00;0.00
73749;PMS7003;62058;48.406;-4.514;2022-10-04T13:00:59;0.00;0.00;0.00
73749;PMS7003;62058;48.406;-4.514;2022-10-04T13:06:39;0.00;0.00;0.00
73749;PMS7003;62058;48.406;-4.514;2022-10-04T13:17:45;0.00;0.00;0.00
73749;PMS7003;62058;48.406;-4.514;2022-10-04T13:23:20;0.00;0.00;0.00
73749;PMS7003;62058;48.406;-4.514;2022-10-04T13:44:53;0.00;0.00;0.00
73749;PMS7003;62058;48.406;-4.514;2022-10-04T13:47:37;0.00;0.00;0.00
73749;PMS7003;62058;48.406;-4.514;2022-10-04T13:50:25;0.00;0.00;0.00
73749;PMS7003;62058;48.406;-4.514;2022-10-04T13:53:18;0.00;0.00;0.00
73749;PMS7003;62058;48.406;-4.514;2022-10-04T13:59:33;0.00;0.00;0.00
73749;PMS7003;62058;48.406;-4.514;2022-10-04T14:19:17;0.00;0.00;0.00
73749;PMS7003;62058;48.406;-4.514;2022-10-04T14:30:23;0.00;0.00;0.00
73749;PMS7003;62058;48.406;-4.514;2022-10-04T14:33:02;0.25;0.00;0.00
73749;PMS7003;62058;48.406;-4.514;2022-10-04T14:35:44;0.00;0.00;0.00
73749;PMS7003;62058;48.406;-4.514;2022-10-04T14:52:58;0.00;0.00;0.00
73749;PMS7003;62058;48.406;-4.514;2022-10-04T15:11:52;0.00;0.00;0.00
73749;PMS7003;62058;48.406;-4.514;2022-10-04T15:17:54;1.00;0.00;0.00
73749;PMS7003;62058;48.406;-4.514;2022-10-04T15:22:56;0.00;0.00;0.00
73749;PMS7003;62058;48.406;-4.514;2022-10-04T15:25:52;2.25;0.00;0.00
73749;PMS7003;62058;48.406;-4.514;2022-10-04T15:39:40;2.00;0.00;0.00
73749;PMS7003;62058;48.406;-4.514;2022-10-04T15:42:14;0.75;0.00;0.00
73749;PMS7003;62058;48.406;-4.514;2022-10-04T15:47:34;0.00;0.00;0.00
73749;PMS7003;62058;48.406;-4.514;2022-10-04T16:12:29;2.00;0.25;0.25
73749;PMS7003;62058;48.406;-4.514;2022-10-04T16:23:37;0.00;0.00;0.00
73749;PMS7003;62058;48.406;-4.514;2022-10-04T16:26:11;2.00;0.25;0.00
73749;PMS7003;62058;48.406;-4.514;2022-10-04T16:31:46;0.00;0.00;0.00
73749;PMS7003;62058;48.406;-4.514;2022-10-04T16:50:11;2.00;0.50;0.00
73749;PMS7003;62058;48.406;-4.514;2022-10-04T16:56:11;3.00;0.00;0.00
73749;PMS7003;62058;48.406;-4.514;2022-10-04T16:58:51;1.00;0.00;0.00
73749;PMS7003;62058;48.406;-4.514;2022-10-04T17:03:51;1.50;1.00;1.00
73749;PMS7003;62058;48.406;-4.514;2022-10-04T17:06:40;1.00;1.00;0.00
73749;PMS7003;62058;48.406;-4.514;2022-10-04T17:15:18;2.00;0.50;0.50
73749;PMS7003;62058;48.406;-4.514;2022-10-04T17:20:58;1.00;1.00;0.25
73749;PMS7003;62058;48.406;-4.514;2022-10-04T17:31:57;0.00;0.00;0.00
73749;PMS7003;62058;48.406;-4.514;2022-10-04T17:34:41;0.75;0.75;0.00
73749;PMS7003;62058;48.406;-4.514;2022-10-04T17:37:46;2.00;1.00;1.00
73749;PMS7003;62058;48.406;-4.514;2022-10-04T17:40:47;1.00;1.00;1.00
73749;PMS7003;62058;48.406;-4.514;2022-10-04T17:43:58;1.25;0.00;0.00
73749;PMS7003;62058;48.406;-4.514;2022-10-04T17:49:26;2.75;1.00;0.00
73749;PMS7003;62058;48.406;-4.514;2022-10-04T17:52:23;1.50;0.25;0.00
73749;PMS7003;62058;48.406;-4.514;2022-10-04T18:00:23;0.25;0.25;0.00
73749;PMS7003;62058;48.406;-4.514;2022-10-04T18:05:44;0.00;0.00;0.00
73749;PMS7003;62058;48.406;-4.514;2022-10-04T18:11:12;1.25;0.00;0.00
73749;PMS7003;62058;48.406;-4.514;2022-10-04T18:13:53;0.25;0.00;0.00
73749;PMS7003;62058;48.406;-4.514;2022-10-04T18:21:54;1.00;1.00;0.25
73749;PMS7003;62058;48.406;-4.514;2022-10-04T18:24:47;2.25;1.00;1.00
73749;PMS7003;62058;48.406;-4.514;2022-10-04T18:27:28;0.50;0.50;0.25
73749;PMS7003;62058;48.406;-4.514;2022-10-04T18:32:43;1.00;0.75;0.00
73749;PMS7003;62058;48.406;-4.514;2022-10-04T18:35:24;2.00;2.00;1.25
73749;PMS7003;62058;48.406;-4.514;2022-10-04T18:37:55;1.00;1.00;1.00
73749;PMS7003;62058;48.406;-4.514;2022-10-04T18:40:41;2.25;1.75;1.75
73749;PMS7003;62058;48.406;-4.514;2022-10-04T18:43:24;0.00;0.00;0.00
73749;PMS7003;62058;48.406;-4.514;2022-10-04T18:45:59;0.50;0.50;0.50
73749;PMS7003;62058;48.406;-4.514;2022-10-04T18:48:40;0.75;0.75;0.00
73749;PMS7003;62058;48.406;-4.514;2022-10-04T18:54:12;1.00;1.00;1.00
73749;PMS7003;62058;48.406;-4.514;2022-10-04T19:02:24;1.25;1.25;1.25
73749;PMS7003;62058;48.406;-4.514;2022-10-04T19:05:00;3.00;1.00;0.50
73749;PMS7003;62058;48.406;-4.514;2022-10-04T19:16:11;1.00;1.00;1.00
73749;PMS7003;62058;48.406;-4.514;2022-10-04T19:21:22;1.00;1.00;1.00
73749;PMS7003;62058;48.406;-4.514;2022-10-04T19:37:40;1.00;1.00;1.00
73749;PMS7003;62058;48.406;-4.514;2022-10-04T19:45:40;1.00;1.00;0.00
73749;PMS7003;62058;48.406;-4.514;2022-10-04T19:48:18;3.00;1.00;1.00
73749;PMS7003;62058;48.406;-4.514;2022-10-04T19:50:48;1.50;0.00;0.00
73749;PMS7003;62058;48.406;-4.514;2022-10-04T19:53:18;1.00;1.00;1.00
73749;PMS7003;62058;48.406;-4.514;2022-10-04T19:55:54;2.75;1.00;1.00
73749;PMS7003;62058;48.406;-4.514;2022-10-04T20:01:17;2.50;1.00;1.00
73749;PMS7003;62058;48.406;-4.514;2022-10-04T20:03:50;5.25;2.00;2.00
73749;PMS7003;62058;48.406;-4.514;2022-10-04T20:06:36;1.00;1.00;1.00
73749;PMS7003;62058;48.406;-4.514;2022-10-04T20:09:29;1.00;1.00;1.00
73749;PMS7003;62058;48.406;-4.514;2022-10-04T20:12:00;2.00;2.00;1.25
73749;PMS7003;62058;48.406;-4.514;2022-10-04T20:21:54;1.00;1.00;1.00
73749;PMS7003;62058;48.406;-4.514;2022-10-04T20:34:58;0.25;0.25;0.25
73749;PMS7003;62058;48.406;-4.514;2022-10-04T20:43:22;0.50;0.50;0.00
73749;PMS7003;62058;48.406;-4.514;2022-10-04T20:45:43;1.00;1.00;1.00
73749;PMS7003;62058;48.406;-4.514;2022-10-04T20:48:11;1.75;1.00;1.00
73749;PMS7003;62058;48.406;-4.514;2022-10-04T20:50:42;2.00;1.50;1.00
73749;PMS7003;62058;48.406;-4.514;2022-10-04T20:53:28;5.25;2.00;1.25
73749;PMS7003;62058;48.406;-4.514;2022-10-04T20:56:09;1.25;1.25;1.00
73749;PMS7003;62058;48.406;-4.514;2022-10-04T20:58:51;2.50;1.00;1.00
73749;PMS7003;62058;48.406;-4.514;2022-10-04T21:06:59;2.00;1.00;0.50
73749;PMS7003;62058;48.406;-4.514;2022-10-04T21:09:32;1.75;1.00;1.00
73749;PMS7003;62058;48.406;-4.514;2022-10-04T21:11:59;1.50;1.00;0.75
73749;PMS7003;62058;48.406;-4.514;2022-10-04T21:14:29;1.50;0.00;0.00
73749;PMS7003;62058;48.406;-4.514;2022-10-04T21:16:56;1.25;1.25;1.00
73749;PMS7003;62058;48.406;-4.514;2022-10-04T21:22:39;2.00;1.00;1.00
73749;PMS7003;62058;48.406;-4.514;2022-10-04T21:24:55;2.00;1.00;1.00
73749;PMS7003;62058;48.406;-4.514;2022-10-04T21:27:25;1.75;1.25;1.00
73749;PMS7003;62058;48.406;-4.514;2022-10-04T21:30:12;2.00;2.00;1.00
73749;PMS7003;62058;48.406;-4.514;2022-10-04T21:32:38;3.50;2.00;1.50
73749;PMS7003;62058;48.406;-4.514;2022-10-04T21:35:05;2.75;1.00;1.00
73749;PMS7003;62058;48.406;-4.514;2022-10-04T21:37:32;2.75;2.00;2.00
73749;PMS7003;62058;48.406;-4.514;2022-10-04T21:39:59;1.00;1.00;1.00
73749;PMS7003;62058;48.406;-4.514;2022-10-04T21:42:24;1.00;1.00;1.00
73749;PMS7003;62058;48.406;-4.514;2022-10-04T21:44:50;1.25;1.25;1.00
73749;PMS7003;62058;48.406;-4.514;2022-10-04T21:47:15;3.00;1.75;1.00
73749;PMS7003;62058;48.406;-4.514;2022-10-04T21:49:41;1.75;1.75;1.00
73749;PMS7003;62058;48.406;-4.514;2022-10-04T21:52:06;2.00;2.00;2.00
73749;PMS7003;62058;48.406;-4.514;2022-10-04T21:54:33;1.50;1.50;1.00
73749;PMS7003;62058;48.406;-4.514;2022-10-04T21:56:58;1.25;0.00;0.00
73749;PMS7003;62058;48.406;-4.514;2022-10-04T21:59:24;2.00;2.00;1.00
73749;PMS7003;62058;48.406;-4.514;2022-10-04T22:01:49;1.25;1.00;1.00
73749;PMS7003;62058;48.406;-4.514;2022-10-04T22:04:15;4.00;2.75;1.50
73749;PMS7003;62058;48.406;-4.514;2022-10-04T22:06:40;6.50;4.00;2.00
73749;PMS7003;62058;48.406;-4.514;2022-10-04T22:09:06;3.00;3.00;3.00
73749;PMS7003;62058;48.406;-4.514;2022-10-04T22:11:32;2.00;2.00;1.25
73749;PMS7003;62058;48.406;-4.514;2022-10-04T22:13:57;3.00;3.00;2.00
73749;PMS7003;62058;48.406;-4.514;2022-10-04T22:16:24;2.50;2.00;2.00
73749;PMS7003;62058;48.406;-4.514;2022-10-04T22:18:49;3.75;1.50;1.50
73749;PMS7003;62058;48.406;-4.514;2022-10-04T22:21:14;5.50;2.00;1.50
73749;PMS7003;62058;48.406;-4.514;2022-10-04T22:23:40;3.00;1.75;1.00
73749;PMS7003;62058;48.406;-4.514;2022-10-04T22:26:14;1.00;1.00;1.00
73749;PMS7003;62058;48.406;-4.514;2022-10-04T22:28:42;1.00;1.00;0.00
73749;PMS7003;62058;48.406;-4.514;2022-10-04T22:31:13;1.75;0.00;0.00
73749;PMS7003;62058;48.406;-4.514;2022-10-04T22:33:41;3.25;1.00;1.00
73749;PMS7003;62058;48.406;-4.514;2022-10-04T22:39:02;3.25;3.00;1.75
73749;PMS7003;62058;48.406;-4.514;2022-10-04T22:41:41;1.00;1.00;1.00
73749;PMS7003;62058;48.406;-4.514;2022-10-04T22:44:15;1.00;1.00;1.00
73749;PMS7003;62058;48.406;-4.514;2022-10-04T22:46:52;1.00;0.00;0.00
73749;PMS7003;62058;48.406;-4.514;2022-10-04T22:49:20;1.00;1.00;1.00
73749;PMS7003;62058;48.406;-4.514;2022-10-04T22:51:49;1.00;1.00;1.00
73749;PMS7003;62058;48.406;-4.514;2022-10-04T22:54:18;1.75;1.75;1.00
73749;PMS7003;62058;48.406;-4.514;2022-10-04T22:56:45;1.00;1.00;1.00
73749;PMS7003;62058;48.406;-4.514;2022-10-04T22:59:12;1.00;0.75;0.50
73749;PMS7003;62058;48.406;-4.514;2022-10-04T23:01:39;1.00;1.00;1.00
73749;PMS7003;62058;48.406;-4.514;2022-10-04T23:04:14;1.00;1.00;0.00
73749;PMS7003;62058;48.406;-4.514;2022-10-04T23:06:44;1.00;1.00;1.00
73749;PMS7003;62058;48.406;-4.514;2022-10-04T23:09:09;0.00;0.00;0.00
73749;PMS7003;62058;48.406;-4.514;2022-10-04T23:11:35;4.25;1.00;1.00
73749;PMS7003;62058;48.406;-4.514;2022-10-04T23:14:00;0.50;0.50;0.50
73749;PMS7003;62058;48.406;-4.514;2022-10-04T23:16:26;0.00;0.00;0.00
73749;PMS7003;62058;48.406;-4.514;2022-10-04T23:18:57;2.00;1.00;0.50
73749;PMS7003;62058;48.406;-4.514;2022-10-04T23:21:26;1.00;1.00;1.00
73749;PMS7003;62058;48.406;-4.514;2022-10-04T23:23:55;0.25;0.25;0.25
73749;PMS7003;62058;48.406;-4.514;2022-10-04T23:26:34;1.00;1.00;0.00
73749;PMS7003;62058;48.406;-4.514;2022-10-04T23:29:04;2.50;0.25;0.00
73749;PMS7003;62058;48.406;-4.514;2022-10-04T23:31:50;2.25;0.00;0.00
73749;PMS7003;62058;48.406;-4.514;2022-10-04T23:34:26;1.00;1.00;1.00
73749;PMS7003;62058;48.406;-4.514;2022-10-04T23:36:55;2.00;0.00;0.00
73749;PMS7003;62058;48.406;-4.514;2022-10-04T23:39:22;1.00;0.00;0.00
73749;PMS7003;62058;48.406;-4.514;2022-10-04T23:41:51;1.50;1.00;0.50
73749;PMS7003;62058;48.406;-4.514;2022-10-04T23:44:17;1.50;1.00;0.25
73749;PMS7003;62058;48.406;-4.514;2022-10-04T23:46:43;0.75;0.00;0.00
73749;PMS7003;62058;48.406;-4.514;2022-10-04T23:49:13;0.00;0.00;0.00
73749;PMS7003;62058;48.406;-4.514;2022-10-04T23:51:39;0.00;0.00;0.00
73749;PMS7003;62058;48.406;-4.514;2022-10-04T23:54:09;2.00;0.25;0.25
73749;PMS7003;62058;48.406;-4.514;2022-10-04T23:56:39;1.00;0.00;0.00
73749;PMS7003;62058;48.406;-4.514;2022-10-04T23:59:07;2.00;0.75;0.50
